Time;durP1;ratioP1;P1;durP2;ratioP2;P2;SDS_P1;SDS_P2;PMS_P1;PMS_P2;Temp;Humidity;BMP_temperature;BMP_pressure;BME280_temperature;BME280_humidity;BME280_pressure;Samples;Min_cycle;Max_cycle;Signal;HPM_P1;HPM_P2
2022/06/11 00:00:16;;;;;;;6.53;2.20;;;18.20;78.40;;;;;;5009803;28;20065;-74
2022/06/11 00:02:42;;;;;;;4.80;2.10;;;18.20;78.00;;;;;;5008463;28;20039;-74
2022/06/11 00:05:08;;;;;;;6.32;2.30;;;18.10;78.10;;;;;;5008821;28;20033;-74
2022/06/11 00:07:34;;;;;;;5.80;2.30;;;18.10;78.10;;;;;;5010825;28;20029;-75
2022/06/11 00:10:01;;;;;;;5.80;2.30;;;18.10;77.90;;;;;;5018225;28;20100;-74
2022/06/11 00:12:27;;;;;;;7.88;2.38;;;18.10;77.70;;;;;;5003586;28;20466;-74
2022/06/11 00:14:53;;;;;;;7.68;1.98;;;18.10;77.40;;;;;;5010642;28;20065;-74
2022/06/11 00:17:23;;;;;;;6.88;2.75;;;18.10;77.00;;;;;;5020231;28;20045;-75
2022/06/11 00:19:49;;;;;;;5.63;2.00;;;18.10;75.70;;;;;;5014090;28;20564;-75
2022/06/11 00:22:17;;;;;;;7.38;2.38;;;18.10;75.20;;;;;;5012394;28;20022;-75
2022/06/11 00:24:44;;;;;;;6.38;2.10;;;18.20;75.20;;;;;;5004713;28;20103;-74
2022/06/11 00:27:11;;;;;;;6.30;2.13;;;18.10;74.70;;;;;;5004284;28;20042;-73
2022/06/11 00:29:39;;;;;;;5.15;1.70;;;18.10;74.60;;;;;;5021297;28;20065;-74
2022/06/11 00:32:06;;;;;;;10.27;2.35;;;18.20;74.30;;;;;;5004726;28;20072;-73
2022/06/11 00:34:33;;;;;;;6.45;1.95;;;18.20;74.00;;;;;;5017081;28;20042;-73
2022/06/11 00:36:59;;;;;;;7.18;2.10;;;18.20;74.00;;;;;;5012543;28;20041;-73
2022/06/11 00:39:29;;;;;;;6.40;2.08;;;18.10;73.50;;;;;;5009685;28;20065;-73
2022/06/11 00:42:00;;;;;;;6.55;2.00;;;18.20;73.00;;;;;;5019533;28;20048;-73
2022/06/11 00:44:26;;;;;;;7.40;2.00;;;18.20;72.90;;;;;;5013764;28;20052;-73
2022/06/11 00:47:00;;;;;;;6.95;1.90;;;18.20;72.70;;;;;;5001677;28;20050;-73
2022/06/11 00:49:27;;;;;;;5.70;2.05;;;18.20;72.70;;;;;;5003614;28;20109;-73
2022/06/11 00:52:20;;;;;;;6.82;1.88;;;18.20;72.20;;;;;;5000075;28;20081;-75
2022/06/11 00:55:12;;;;;;;8.20;2.42;;;18.20;72.30;;;;;;5005815;28;20045;-72
2022/06/11 00:58:06;;;;;;;7.38;2.17;;;18.20;72.00;;;;;;5009871;28;20532;-73
2022/06/11 01:00:54;;;;;;;8.35;2.33;;;18.20;72.20;;;;;;5014698;28;20534;-74
2022/06/11 01:03:27;;;;;;;9.73;2.45;;;18.20;71.90;;;;;;5009312;28;20042;-73
2022/06/11 01:06:19;;;;;;;8.73;2.88;;;18.20;71.80;;;;;;5011456;28;20041;-73
2022/06/11 01:08:54;;;;;;;7.10;2.10;;;18.20;71.70;;;;;;5005432;28;20045;-74
2022/06/11 01:11:37;;;;;;;7.68;2.10;;;18.20;71.50;;;;;;5012139;28;20025;-74
2022/06/11 01:14:24;;;;;;;11.20;2.35;;;18.10;71.00;;;;;;5006232;28;20048;-73
2022/06/11 01:17:16;;;;;;;8.95;3.08;;;18.10;70.80;;;;;;5015724;28;20041;-73
2022/06/11 01:19:54;;;;;;;10.18;2.70;;;18.20;70.60;;;;;;5002905;28;20052;-73
2022/06/11 01:22:58;;;;;;;8.07;2.40;;;18.10;70.80;;;;;;5012005;28;20037;-73
2022/06/11 01:25:44;;;;;;;8.35;2.15;;;18.10;70.60;;;;;;5010433;28;20056;-73
2022/06/11 01:28:42;;;;;;;8.63;2.55;;;18.10;70.70;;;;;;5024300;28;20045;-73
2022/06/11 01:31:21;;;;;;;8.48;2.83;;;18.10;70.70;;;;;;5004418;28;20121;-75
2022/06/11 01:34:07;;;;;;;10.07;2.50;;;18.00;71.10;;;;;;5009272;28;20048;-74
2022/06/11 01:36:40;;;;;;;9.27;2.58;;;18.00;71.20;;;;;;4992930;28;20525;-73
2022/06/11 01:39:32;;;;;;;13.05;3.08;;;18.00;71.10;;;;;;5000538;28;20028;-74
2022/06/11 01:42:07;;;;;;;9.50;2.38;;;18.00;70.90;;;;;;5007149;28;20370;-73
2022/06/11 01:44:37;;;;;;;8.82;2.70;;;17.80;71.10;;;;;;4992931;28;20058;-73
2022/06/11 01:47:04;;;;;;;9.95;2.53;;;17.80;71.20;;;;;;5004273;28;20481;-74
2022/06/11 01:49:30;;;;;;;7.90;3.22;;;17.80;71.50;;;;;;4996416;28;20034;-74
2022/06/11 01:52:14;;;;;;;10.88;3.30;;;17.80;71.90;;;;;;5006496;28;20038;-73
2022/06/11 01:55:00;;;;;;;9.95;2.83;;;17.70;72.40;;;;;;5007993;28;20508;-73
2022/06/11 01:57:38;;;;;;;9.05;2.58;;;17.60;72.40;;;;;;5003632;28;20097;-73
2022/06/11 02:00:35;;;;;;;11.95;3.17;;;17.60;72.40;;;;;;5001791;28;20048;-73
2022/06/11 02:03:24;;;;;;;11.88;2.88;;;17.60;73.20;;;;;;4998116;28;20108;-76
2022/06/11 02:06:11;;;;;;;8.50;2.75;;;17.50;74.30;;;;;;5007002;28;20046;-73
2022/06/11 02:08:55;;;;;;;10.77;3.05;;;17.40;75.20;;;;;;5006377;28;20559;-74
2022/06/11 02:11:57;;;;;;;10.63;2.40;;;17.40;75.60;;;;;;5002401;28;21047;-73
2022/06/11 02:14:41;;;;;;;9.73;2.63;;;17.30;75.60;;;;;;4975462;28;20041;-73
2022/06/11 02:17:18;;;;;;;10.45;2.90;;;17.20;75.30;;;;;;5000797;28;20040;-73
2022/06/11 02:20:04;;;;;;;9.77;2.97;;;17.20;75.30;;;;;;5002484;28;20042;-73
2022/06/11 02:22:59;;;;;;;10.63;2.92;;;17.20;75.10;;;;;;4999739;28;20161;-73
2022/06/11 02:25:33;;;;;;;8.15;2.80;;;17.20;74.80;;;;;;5001245;28;20104;-73
2022/06/11 02:28:06;;;;;;;11.60;2.97;;;17.20;74.90;;;;;;5011707;28;20498;-73
2022/06/11 02:30:33;;;;;;;10.25;3.85;;;17.20;75.10;;;;;;5009178;28;20030;-74
2022/06/11 02:33:00;;;;;;;13.02;3.90;;;17.10;75.00;;;;;;5001193;28;20037;-73
2022/06/11 02:35:37;;;;;;;9.70;2.80;;;17.10;75.20;;;;;;5008416;28;20204;-73
2022/06/11 02:38:06;;;;;;;11.15;3.15;;;17.10;75.20;;;;;;5011430;28;20462;-75
2022/06/11 02:40:41;;;;;;;12.60;3.35;;;17.10;75.00;;;;;;5008342;28;20040;-73
2022/06/11 02:43:07;;;;;;;12.18;3.22;;;17.10;74.10;;;;;;4995816;28;20030;-74
2022/06/11 02:45:33;;;;;;;11.45;3.55;;;16.90;73.90;;;;;;5005850;28;20417;-73
2022/06/11 02:47:59;;;;;;;12.25;3.58;;;17.00;73.50;;;;;;5005312;28;20035;-72
2022/06/11 02:50:29;;;;;;;10.73;3.13;;;17.00;72.70;;;;;;5002688;28;20044;-75
2022/06/11 02:52:56;;;;;;;12.10;3.13;;;17.00;72.60;;;;;;5000378;28;20046;-74
2022/06/11 02:55:22;;;;;;;12.30;3.42;;;16.90;72.30;;;;;;5010440;28;20584;-74
2022/06/11 02:57:48;;;;;;;14.98;3.38;;;16.90;72.10;;;;;;5009274;28;20397;-74
2022/06/11 03:00:19;;;;;;;16.92;3.67;;;16.90;72.00;;;;;;5000428;28;20151;-74
2022/06/11 03:02:47;;;;;;;11.40;3.30;;;16.90;71.60;;;;;;5010681;28;20125;-73
2022/06/11 03:05:17;;;;;;;19.55;4.32;;;16.90;71.20;;;;;;5014779;28;20786;-71
2022/06/11 03:07:43;;;;;;;12.48;3.38;;;16.80;71.20;;;;;;4995006;28;20050;-73
2022/06/11 03:10:08;;;;;;;13.35;3.58;;;16.80;71.00;;;;;;5005895;28;20436;-75
2022/06/11 03:12:34;;;;;;;13.38;3.25;;;16.80;70.80;;;;;;5007892;28;20041;-73
2022/06/11 03:15:00;;;;;;;13.75;3.42;;;16.90;70.60;;;;;;5014696;28;20087;-74
2022/06/11 03:17:26;;;;;;;12.45;3.22;;;16.90;70.60;;;;;;5007784;28;20046;-73
2022/06/11 03:19:52;;;;;;;12.20;3.72;;;16.90;70.60;;;;;;5002596;28;20749;-73
2022/06/11 03:22:17;;;;;;;12.40;3.03;;;16.90;70.90;;;;;;5003390;28;20133;-73
2022/06/11 03:24:44;;;;;;;16.40;4.03;;;16.90;70.90;;;;;;5010170;28;20050;-73
2022/06/11 03:27:10;;;;;;;10.75;3.33;;;16.90;70.40;;;;;;4999885;28;20047;-73
2022/06/11 03:29:36;;;;;;;13.77;3.78;;;16.90;70.50;;;;;;5013252;28;20133;-73
2022/06/11 03:32:03;;;;;;;12.32;3.75;;;16.90;70.50;;;;;;4997091;28;20040;-74
2022/06/11 03:34:29;;;;;;;15.52;3.60;;;16.90;70.50;;;;;;5014853;28;20045;-73
2022/06/11 03:36:57;;;;;;;14.52;4.13;;;16.90;70.10;;;;;;5014301;28;20042;-72
2022/06/11 03:39:23;;;;;;;12.25;3.38;;;16.80;70.20;;;;;;5002080;28;20792;-75
2022/06/11 03:41:50;;;;;;;15.07;3.55;;;16.70;70.40;;;;;;5005187;28;20109;-74
2022/06/11 03:44:17;;;;;;;15.55;3.95;;;16.70;70.40;;;;;;5006830;28;20150;-74
2022/06/11 03:46:43;;;;;;;13.00;3.53;;;16.70;70.30;;;;;;5014259;28;20125;-74
2022/06/11 03:49:09;;;;;;;15.10;3.40;;;16.70;70.20;;;;;;5003157;28;20033;-74
2022/06/11 03:51:35;;;;;;;11.85;3.20;;;16.70;70.10;;;;;;5013246;28;20060;-73
2022/06/11 03:54:01;;;;;;;12.95;3.78;;;16.70;70.00;;;;;;5010289;28;20041;-75
2022/06/11 03:56:27;;;;;;;11.90;3.40;;;16.70;69.80;;;;;;4999105;28;20110;-72
2022/06/11 03:58:53;;;;;;;14.25;3.75;;;16.70;69.90;;;;;;5008462;28;20469;-74
2022/06/11 04:01:19;;;;;;;13.68;3.75;;;16.70;70.10;;;;;;5014921;28;20473;-74
2022/06/11 04:03:50;;;;;;;17.48;3.85;;;16.70;70.10;;;;;;5008861;28;20037;-74
2022/06/11 04:06:20;;;;;;;11.95;3.33;;;16.70;70.00;;;;;;5006199;28;20038;-73
2022/06/11 04:08:46;;;;;;;15.05;3.95;;;16.70;69.80;;;;;;5008875;28;20033;-73
2022/06/11 04:11:13;;;;;;;14.50;3.92;;;16.70;70.10;;;;;;5020918;28;20128;-73
2022/06/11 04:13:41;;;;;;;15.25;3.90;;;16.70;69.90;;;;;;5009331;28;20049;-74
2022/06/11 04:16:16;;;;;;;14.50;4.30;;;16.70;69.80;;;;;;5018412;28;20037;-74
2022/06/11 04:18:48;;;;;;;16.05;4.97;;;16.70;69.80;;;;;;5012474;28;20066;-73
2022/06/11 04:21:14;;;;;;;14.55;3.80;;;16.80;69.80;;;;;;5002195;28;20448;-73
2022/06/11 04:23:44;;;;;;;13.57;3.30;;;16.80;69.70;;;;;;5005598;28;20061;-73
2022/06/11 04:26:13;;;;;;;11.27;3.63;;;16.80;69.80;;;;;;5017312;28;20136;-74
2022/06/11 04:28:40;;;;;;;15.57;3.80;;;16.80;70.00;;;;;;5011034;28;20053;-75
2022/06/11 04:31:08;;;;;;;13.68;3.97;;;16.80;69.90;;;;;;5031786;28;20038;-74
2022/06/11 04:33:34;;;;;;;17.45;3.88;;;16.80;70.00;;;;;;5011740;28;20469;-74
2022/06/11 04:36:00;;;;;;;15.25;4.78;;;16.70;70.30;;;;;;5010512;28;20478;-73
2022/06/11 04:38:26;;;;;;;20.88;4.32;;;16.80;70.00;;;;;;5006650;28;20048;-74
2022/06/11 04:40:53;;;;;;;15.30;3.60;;;16.80;70.00;;;;;;5011738;28;20065;-74
2022/06/11 04:43:19;;;;;;;18.75;4.22;;;16.70;70.00;;;;;;5004324;28;20029;-74
2022/06/11 04:45:45;;;;;;;15.55;4.47;;;16.80;70.10;;;;;;5006425;28;20049;-74
2022/06/11 04:48:11;;;;;;;23.55;4.63;;;16.80;70.10;;;;;;5003345;28;20046;-74
2022/06/11 04:50:37;;;;;;;14.68;4.28;;;16.80;70.20;;;;;;5009770;28;20536;-75
2022/06/11 04:53:03;;;;;;;19.40;4.47;;;16.90;70.00;;;;;;5002075;28;20128;-73
2022/06/11 04:55:30;;;;;;;18.20;4.10;;;16.90;70.00;;;;;;5029133;28;20121;-73
2022/06/11 04:57:55;;;;;;;15.57;4.75;;;16.90;70.20;;;;;;5008499;28;20037;-74
2022/06/11 05:00:25;;;;;;;25.17;5.82;;;17.00;70.40;;;;;;5004297;28;20160;-74
2022/06/11 05:02:51;;;;;;;15.68;4.35;;;17.10;70.30;;;;;;5016709;28;20061;-74
2022/06/11 05:05:17;;;;;;;15.50;4.82;;;17.10;70.40;;;;;;5010804;28;20130;-73
2022/06/11 05:07:44;;;;;;;16.70;4.93;;;17.20;69.80;;;;;;5000729;28;20038;-73
2022/06/11 05:10:12;;;;;;;19.85;5.38;;;17.30;69.70;;;;;;5009998;28;20038;-74
2022/06/11 05:12:38;;;;;;;17.25;4.63;;;17.30;69.20;;;;;;5003698;28;20034;-73
2022/06/11 05:15:04;;;;;;;19.08;5.43;;;17.30;69.40;;;;;;5002815;28;20096;-73
2022/06/11 05:17:30;;;;;;;18.55;4.80;;;17.10;69.50;;;;;;5013227;28;20140;-73
2022/06/11 05:19:55;;;;;;;18.38;4.80;;;17.10;70.00;;;;;;5005397;28;20129;-73
2022/06/11 05:22:21;;;;;;;18.40;4.90;;;17.10;70.20;;;;;;4994135;28;20497;-73
2022/06/11 05:24:47;;;;;;;19.77;4.82;;;17.10;70.70;;;;;;5011536;28;20049;-73
2022/06/11 05:27:16;;;;;;;20.45;5.53;;;17.10;70.60;;;;;;5005022;28;20065;-73
2022/06/11 05:29:54;;;;;;;20.85;5.72;;;17.10;71.00;;;;;;5013404;28;20099;-73
2022/06/11 05:32:29;;;;;;;18.35;5.32;;;17.10;70.40;;;;;;5007297;28;20029;-73
2022/06/11 05:34:57;;;;;;;19.67;4.72;;;17.20;70.60;;;;;;4998718;28;20042;-73
2022/06/11 05:37:23;;;;;;;23.05;5.68;;;17.30;70.60;;;;;;4992296;28;20627;-73
2022/06/11 05:39:48;;;;;;;20.50;5.72;;;17.40;70.20;;;;;;5001834;28;20042;-73
2022/06/11 05:42:16;;;;;;;18.77;4.97;;;17.40;70.40;;;;;;5009375;28;20406;-73
2022/06/11 05:44:42;;;;;;;16.13;4.85;;;17.50;69.80;;;;;;5005502;28;20505;-73
2022/06/11 05:47:12;;;;;;;21.50;5.38;;;17.60;69.00;;;;;;4998323;28;20034;-73
2022/06/11 05:49:42;;;;;;;23.65;5.95;;;17.60;68.80;;;;;;5015586;28;20029;-73
2022/06/11 05:52:20;;;;;;;18.38;3.95;;;18.10;67.60;;;;;;4994882;28;20486;-74
2022/06/11 05:54:48;;;;;;;20.52;5.22;;;18.20;66.90;;;;;;4991570;28;20116;-75
2022/06/11 05:57:17;;;;;;;18.40;4.90;;;18.10;67.10;;;;;;4991520;28;20038;-73
2022/06/11 05:59:48;;;;;;;14.25;4.28;;;18.60;67.00;;;;;;5000981;28;20054;-74
2022/06/11 06:02:16;;;;;;;22.17;5.30;;;18.90;65.50;;;;;;5004315;28;20045;-73
2022/06/11 06:04:42;;;;;;;18.55;5.00;;;19.20;65.00;;;;;;5010190;28;20046;-74
2022/06/11 06:07:08;;;;;;;20.83;5.22;;;19.10;65.20;;;;;;4994514;28;20519;-73
2022/06/11 06:09:35;;;;;;;22.52;5.30;;;19.10;65.00;;;;;;4994243;28;20120;-73
2022/06/11 06:12:02;;;;;;;16.25;4.28;;;18.70;66.20;;;;;;5002840;28;20056;-73
2022/06/11 06:14:27;;;;;;;19.48;4.70;;;18.60;66.20;;;;;;5000352;28;20049;-72
2022/06/11 06:16:53;;;;;;;21.60;5.90;;;18.30;67.60;;;;;;4995458;28;20514;-75
2022/06/11 06:19:19;;;;;;;27.15;6.03;;;18.30;68.30;;;;;;5000813;28;20025;-74
2022/06/11 06:21:45;;;;;;;21.77;4.95;;;18.30;68.50;;;;;;5004037;28;20038;-73
2022/06/11 06:24:11;;;;;;;20.83;4.93;;;18.30;68.50;;;;;;4994705;28;20161;-73
2022/06/11 06:26:37;;;;;;;23.52;6.28;;;18.50;68.80;;;;;;4991400;28;20402;-75
2022/06/11 06:29:04;;;;;;;18.83;5.25;;;18.80;68.70;;;;;;4992750;28;20502;-73
2022/06/11 06:31:31;;;;;;;23.92;5.22;;;18.70;67.60;;;;;;4997541;28;20030;-75
2022/06/11 06:33:59;;;;;;;19.83;5.10;;;18.70;67.30;;;;;;5031924;28;20084;-73
2022/06/11 06:36:25;;;;;;;19.17;5.60;;;18.50;68.10;;;;;;4991224;28;20191;-74
2022/06/11 06:38:51;;;;;;;20.08;5.30;;;18.60;68.20;;;;;;4986981;28;20042;-74
2022/06/11 06:41:18;;;;;;;20.95;5.28;;;18.80;67.60;;;;;;4990937;28;20041;-72
2022/06/11 06:43:44;;;;;;;23.05;5.47;;;19.20;66.90;;;;;;4989062;28;20038;-75
2022/06/11 06:46:11;;;;;;;26.25;5.57;;;19.50;65.90;;;;;;4987488;28;20050;-75
2022/06/11 06:48:36;;;;;;;25.08;6.00;;;19.80;64.90;;;;;;4989596;28;20030;-74
2022/06/11 06:51:03;;;;;;;24.38;5.63;;;20.10;63.90;;;;;;4987718;28;20459;-74
2022/06/11 06:53:29;;;;;;;19.08;5.03;;;20.40;63.10;;;;;;4987265;28;20026;-74
2022/06/11 06:55:56;;;;;;;23.80;5.47;;;20.60;62.10;;;;;;4992568;28;20041;-73
2022/06/11 06:58:22;;;;;;;22.02;5.05;;;20.70;62.30;;;;;;4995666;28;20126;-74
2022/06/11 07:00:47;;;;;;;15.90;4.38;;;21.00;61.40;;;;;;4996758;28;20103;-74
2022/06/11 07:03:14;;;;;;;20.17;4.90;;;21.00;60.20;;;;;;5013853;28;20394;-74
2022/06/11 07:05:41;;;;;;;22.77;5.75;;;21.00;60.90;;;;;;5003189;28;20061;-74
2022/06/11 07:08:07;;;;;;;19.08;5.22;;;20.80;61.40;;;;;;5000271;28;20038;-74
2022/06/11 07:10:33;;;;;;;21.42;5.63;;;21.10;62.20;;;;;;4992813;28;20115;-73
2022/06/11 07:13:00;;;;;;;19.80;5.18;;;21.00;61.10;;;;;;5003723;28;20041;-73
2022/06/11 07:15:26;;;;;;;15.07;4.20;;;20.60;62.30;;;;;;5000423;28;20055;-74
2022/06/11 07:18:07;;;;;;;23.73;5.28;;;20.20;63.00;;;;;;4996607;28;20049;-74
2022/06/11 07:20:35;;;;;;;23.70;5.40;;;20.10;64.60;;;;;;4989077;28;20449;-74
2022/06/11 07:23:16;;;;;;;22.92;5.88;;;20.40;62.30;;;;;;4992405;28;20046;-73
2022/06/11 07:25:46;;;;;;;19.13;6.10;;;20.20;62.90;;;;;;4995657;28;20054;-73
2022/06/11 07:28:21;;;;;;;21.75;4.82;;;20.10;62.50;;;;;;5000348;28;20033;-73
2022/06/11 07:30:46;;;;;;;20.13;5.85;;;19.80;64.20;;;;;;4996939;28;20074;-73
2022/06/11 07:33:16;;;;;;;19.10;5.57;;;19.60;64.60;;;;;;4996882;28;20556;-73
2022/06/11 07:35:42;;;;;;;24.10;5.63;;;19.40;65.50;;;;;;4991596;28;20042;-73
2022/06/11 07:38:12;;;;;;;18.73;4.40;;;19.20;65.90;;;;;;4993258;28;20116;-74
2022/06/11 07:40:38;;;;;;;22.10;5.68;;;19.60;66.50;;;;;;5001037;28;20059;-71
2022/06/11 07:43:06;;;;;;;18.42;4.93;;;20.10;65.10;;;;;;4997010;28;20046;-72
2022/06/11 07:45:33;;;;;;;21.45;5.40;;;20.50;63.80;;;;;;4987806;28;20046;-75
2022/06/11 07:48:00;;;;;;;23.10;6.03;;;20.80;62.20;;;;;;5005751;28;20398;-72
2022/06/11 07:50:31;;;;;;;23.23;5.38;;;21.00;61.30;;;;;;5002294;28;20041;-73
2022/06/11 07:52:58;;;;;;;22.92;6.40;;;21.10;60.70;;;;;;5002979;28;20034;-73
2022/06/11 07:55:25;;;;;;;20.20;5.43;;;21.30;60.10;;;;;;4999308;28;20052;-73
2022/06/11 07:57:51;;;;;;;21.88;5.55;;;21.30;58.50;;;;;;4995376;28;20041;-74
2022/06/11 08:00:22;;;;;;;21.55;4.93;;;20.90;59.80;;;;;;4993969;28;20145;-74
2022/06/11 08:02:48;;;;;;;18.83;4.32;;;20.80;59.60;;;;;;5000635;28;20128;-73
2022/06/11 08:05:15;;;;;;;15.07;3.45;;;21.20;57.30;;;;;;4995064;28;20892;-74
2022/06/11 08:07:40;;;;;;;19.25;3.80;;;21.70;56.00;;;;;;4999793;28;20045;-74
2022/06/11 08:10:06;;;;;;;15.85;4.10;;;21.90;54.60;;;;;;5012023;28;20089;-73
2022/06/11 08:12:32;;;;;;;16.02;4.25;;;21.70;54.20;;;;;;5004512;28;20034;-74
2022/06/11 08:14:58;;;;;;;21.67;4.07;;;21.80;53.80;;;;;;5004998;28;20053;-73
2022/06/11 08:17:26;;;;;;;17.80;4.45;;;21.60;53.20;;;;;;5013779;28;20034;-72
2022/06/11 08:19:52;;;;;;;16.73;3.80;;;21.60;54.40;;;;;;5011211;28;20153;-72
2022/06/11 08:22:19;;;;;;;16.50;3.92;;;21.40;53.50;;;;;;5017710;28;20406;-74
2022/06/11 08:24:46;;;;;;;14.10;3.63;;;21.80;54.00;;;;;;5004604;28;20466;-74
2022/06/11 08:27:12;;;;;;;13.55;3.75;;;21.60;53.10;;;;;;5003248;28;20046;-73
2022/06/11 08:29:37;;;;;;;17.30;3.90;;;21.30;54.50;;;;;;4998208;28;20045;-74
2022/06/11 08:32:05;;;;;;;14.73;3.88;;;21.60;55.00;;;;;;5005037;28;20046;-73
2022/06/11 08:34:34;;;;;;;12.63;3.85;;;21.60;53.90;;;;;;5008017;28;20036;-73
2022/06/11 08:37:00;;;;;;;16.45;3.92;;;21.70;53.50;;;;;;5004040;28;20037;-72
2022/06/11 08:39:26;;;;;;;16.60;3.67;;;21.90;55.40;;;;;;5005560;28;20042;-73
2022/06/11 08:41:52;;;;;;;13.68;4.05;;;21.80;51.50;;;;;;5014539;28;20042;-74
2022/06/11 08:44:17;;;;;;;13.73;3.80;;;21.70;52.40;;;;;;5001843;28;20042;-74
2022/06/11 08:46:48;;;;;;;18.77;4.80;;;21.80;53.20;;;;;;5014050;28;20050;-74
2022/06/11 08:49:16;;;;;;;14.93;3.65;;;22.10;51.70;;;;;;5003363;28;20413;-74
2022/06/11 08:51:56;;;;;;;11.93;3.78;;;22.50;51.40;;;;;;5009139;28;20034;-71
2022/06/11 08:54:34;;;;;;;15.68;3.97;;;22.60;51.30;;;;;;5001733;28;20402;-74
2022/06/11 08:57:12;;;;;;;17.00;3.92;;;22.50;51.00;;;;;;5003212;28;20107;-74
2022/06/11 08:59:56;;;;;;;14.63;4.00;;;22.40;52.00;;;;;;4995018;28;20072;-74
2022/06/11 09:02:41;;;;;;;13.57;3.38;;;22.60;52.60;;;;;;5005372;28;20069;-75
2022/06/11 09:05:38;;;;;;;16.00;3.80;;;22.60;53.10;;;;;;4999406;28;20046;-73
2022/06/11 09:08:15;;;;;;;13.63;3.92;;;22.80;52.00;;;;;;5014866;28;20042;-74
2022/06/11 09:10:47;;;;;;;16.52;4.05;;;22.80;51.80;;;;;;4998806;28;20045;-74
2022/06/11 09:13:25;;;;;;;14.52;4.00;;;22.90;50.50;;;;;;5002149;28;21426;-74
2022/06/11 09:16:21;;;;;;;14.73;3.58;;;22.80;50.10;;;;;;5004912;28;20045;-74
2022/06/11 09:18:55;;;;;;;11.93;3.30;;;23.10;48.50;;;;;;4987919;28;20049;-73
2022/06/11 09:21:59;;;;;;;12.38;3.22;;;23.30;47.50;;;;;;5000340;28;20037;-73
2022/06/11 09:25:01;;;;;;;12.75;3.45;;;23.40;47.70;;;;;;5000433;28;20059;-74
2022/06/11 09:27:48;;;;;;;14.68;3.97;;;23.40;48.30;;;;;;5001541;28;20054;-73
2022/06/11 09:30:18;;;;;;;12.90;3.28;;;23.80;47.90;;;;;;4994107;28;20047;-74
2022/06/11 09:32:53;;;;;;;12.35;3.83;;;24.30;48.00;;;;;;4990525;28;20045;-74
2022/06/11 09:35:35;;;;;;;14.60;3.92;;;24.40;48.40;;;;;;5004298;28;20064;-74
2022/06/11 09:38:19;;;;;;;14.52;3.45;;;24.70;46.50;;;;;;5007653;28;20029;-74
2022/06/11 09:40:49;;;;;;;;;;;24.90;47.00;;;;;;5001022;28;20083;-73
2022/06/11 09:44:03;;;;;;;16.73;3.90;;;25.00;47.50;;;;;;4997886;28;19921;-75
2022/06/11 09:46:39;;;;;;;12.93;3.58;;;24.80;47.70;;;;;;4931731;28;20085;-73
2022/06/11 09:49:23;;;;;;;15.75;3.40;;;24.90;46.80;;;;;;4991864;28;20038;-73
2022/06/11 09:51:53;;;;;;;;;;;24.80;46.00;;;;;;4988854;28;20133;-74
2022/06/11 09:55:00;;;;;;;17.70;3.55;;;24.20;47.80;;;;;;4996509;28;19969;-72
2022/06/11 09:57:44;;;;;;;16.73;4.63;;;24.10;49.00;;;;;;4991068;28;20192;-72
2022/06/11 10:00:25;;;;;;;15.02;3.88;;;24.10;50.10;;;;;;4992688;28;20034;-75
2022/06/11 10:03:10;;;;;;;15.48;3.85;;;24.50;47.10;;;;;;4999077;28;20107;-75
2022/06/11 10:05:57;;;;;;;16.63;3.42;;;24.60;46.70;;;;;;4999538;28;20046;-75
2022/06/11 10:08:58;;;;;;;15.80;3.65;;;24.50;48.20;;;;;;4998129;28;20159;-76
2022/06/11 10:11:48;;;;;;;13.70;3.55;;;24.50;48.60;;;;;;4992141;28;20034;-76
2022/06/11 10:14:28;;;;;;;12.93;3.45;;;24.90;47.00;;;;;;5010553;28;20038;-75
2022/06/11 10:17:19;;;;;;;12.50;3.30;;;25.10;45.50;;;;;;4994288;28;20068;-75
2022/06/11 10:20:11;;;;;;;15.82;3.85;;;25.20;46.80;;;;;;4999497;28;20142;-75
2022/06/11 10:23:18;;;;;;;13.40;3.58;;;25.30;45.90;;;;;;4988678;28;20038;-76
2022/06/11 10:26:00;;;;;;;13.90;3.70;;;25.40;47.20;;;;;;5011136;28;20053;-77
2022/06/11 10:28:35;;;;;;;13.77;3.83;;;25.30;46.00;;;;;;5042784;28;20852;-76
2022/06/11 10:31:22;;;;;;;11.23;3.08;;;25.50;46.10;;;;;;5004634;28;20037;-77
2022/06/11 10:33:56;;;;;;;12.00;3.22;;;25.40;45.20;;;;;;5005535;28;20036;-80
2022/06/11 10:36:29;;;;;;;12.55;3.40;;;25.80;45.10;;;;;;4994080;28;20061;-76
2022/06/11 10:39:02;;;;;;;12.07;3.33;;;25.90;44.30;;;;;;4993200;28;20711;-79
2022/06/11 10:41:51;;;;;;;13.45;3.22;;;25.80;45.10;;;;;;4990791;28;20046;-77
2022/06/11 10:44:51;;;;;;;13.27;3.03;;;25.80;45.80;;;;;;4995623;28;20041;-79
2022/06/11 10:47:34;;;;;;;13.60;3.42;;;25.10;47.00;;;;;;4995853;28;20132;-79
2022/06/11 10:50:07;;;;;;;12.35;3.17;;;24.20;47.60;;;;;;4996700;28;20030;-76
2022/06/11 10:52:47;;;;;;;16.83;3.67;;;24.10;48.80;;;;;;4993904;28;20034;-74
2022/06/11 10:55:44;;;;;;;12.68;3.50;;;24.80;47.70;;;;;;4995495;28;20650;-78
2022/06/11 10:58:44;;;;;;;13.30;3.80;;;24.80;47.70;;;;;;4997146;28;20482;-77
2022/06/11 11:01:22;;;;;;;12.82;3.33;;;24.80;47.90;;;;;;4996261;28;20088;-77
2022/06/11 11:03:50;;;;;;;11.65;3.33;;;25.00;47.00;;;;;;4992861;28;20038;-78
2022/06/11 11:06:34;;;;;;;12.50;2.92;;;24.40;47.90;;;;;;4991975;28;20085;-78
2022/06/11 11:09:06;;;;;;;11.68;2.85;;;24.50;48.90;;;;;;4993543;28;20143;-79
2022/06/11 11:11:49;;;;;;;14.93;3.25;;;25.30;47.70;;;;;;4995384;28;20034;-78
2022/06/11 11:14:26;;;;;;;13.63;3.63;;;25.60;46.20;;;;;;5004212;28;21021;-80
2022/06/11 11:16:53;;;;;;;11.02;2.92;;;26.00;46.90;;;;;;4997119;28;20044;-77
2022/06/11 11:19:24;;;;;;;10.27;3.08;;;25.50;45.50;;;;;;4991944;28;20065;-76
2022/06/11 11:21:58;;;;;;;11.98;3.55;;;24.90;48.10;;;;;;5000878;28;20034;-79
2022/06/11 11:24:37;;;;;;;14.13;3.80;;;24.40;49.10;;;;;;4994074;28;20057;-79
2022/06/11 11:27:22;;;;;;;11.48;3.60;;;24.50;48.50;;;;;;4993688;28;20082;-76
2022/06/11 11:29:59;;;;;;;12.05;2.97;;;24.50;49.40;;;;;;5004843;28;20033;-78
2022/06/11 11:32:34;;;;;;;12.52;3.03;;;24.10;50.10;;;;;;5010993;28;20031;-77
2022/06/11 11:35:16;;;;;;;15.30;3.63;;;23.90;50.60;;;;;;5001010;28;20034;-76
2022/06/11 11:37:44;;;;;;;11.45;2.90;;;24.00;51.00;;;;;;5011041;28;20067;-76
2022/06/11 11:40:29;;;;;;;11.25;2.80;;;24.40;49.30;;;;;;5002504;28;20790;-75
2022/06/11 11:42:57;;;;;;;11.88;3.35;;;24.60;49.90;;;;;;4988816;28;20088;-77
2022/06/11 11:45:29;;;;;;;14.07;3.25;;;24.80;48.90;;;;;;5001937;28;20054;-76
2022/06/11 11:48:03;;;;;;;11.20;2.90;;;25.00;48.00;;;;;;4994190;28;20115;-76
2022/06/11 11:50:36;;;;;;;11.35;2.67;;;24.80;47.10;;;;;;4998766;28;20042;-76
2022/06/11 11:53:13;;;;;;;13.77;3.50;;;24.80;48.70;;;;;;4997006;28;20161;-76
2022/06/11 11:55:42;;;;;;;10.45;2.90;;;24.60;48.60;;;;;;5010307;28;20179;-79
2022/06/11 11:58:21;;;;;;;11.85;2.67;;;24.50;48.70;;;;;;5005505;28;20042;-78
2022/06/11 12:00:55;;;;;;;11.80;2.67;;;24.30;48.70;;;;;;5001699;28;20373;-77
2022/06/11 12:03:34;;;;;;;11.73;3.38;;;24.50;48.10;;;;;;5008729;28;20042;-76
2022/06/11 12:06:01;;;;;;;9.95;2.47;;;24.60;48.90;;;;;;5013660;28;20070;-76
2022/06/11 12:08:40;;;;;;;7.95;2.63;;;24.60;48.60;;;;;;5008360;28;20565;-75
2022/06/11 12:11:06;;;;;;;11.70;3.35;;;24.60;49.20;;;;;;5003032;28;20026;-75
2022/06/11 12:13:44;;;;;;;12.57;2.80;;;24.10;49.80;;;;;;5004242;28;20385;-76
2022/06/11 12:16:17;;;;;;;11.48;2.72;;;24.50;49.50;;;;;;5011104;28;20049;-76
2022/06/11 12:18:50;;;;;;;10.50;2.60;;;24.60;49.10;;;;;;5019310;28;20057;-75
2022/06/11 12:21:23;;;;;;;10.00;2.60;;;24.80;48.20;;;;;;5000943;28;20459;-75
2022/06/11 12:23:55;;;;;;;11.75;3.03;;;25.50;47.20;;;;;;5005743;28;20129;-75
2022/06/11 12:26:27;;;;;;;11.35;2.45;;;25.40;47.90;;;;;;5013446;28;20475;-77
2022/06/11 12:29:00;;;;;;;7.82;2.40;;;25.40;46.90;;;;;;5005500;28;20064;-76
2022/06/11 12:31:31;;;;;;;9.80;2.60;;;25.70;45.70;;;;;;4997273;28;20042;-76
2022/06/11 12:33:57;;;;;;;8.57;2.30;;;26.00;44.80;;;;;;5007329;28;20038;-76
2022/06/11 12:36:38;;;;;;;9.07;2.55;;;25.90;47.20;;;;;;5001892;28;20034;-76
2022/06/11 12:39:33;;;;;;;11.30;2.95;;;25.70;47.10;;;;;;5019968;28;20133;-75
2022/06/11 12:42:40;;;;;;;7.93;2.13;;;25.00;48.20;;;;;;5003980;28;20947;-77
2022/06/11 12:45:26;;;;;;;11.05;2.65;;;24.90;47.50;;;;;;4988698;28;20101;-79
2022/06/11 12:48:13;;;;;;;12.25;2.42;;;24.50;48.50;;;;;;5002360;28;20034;-76
2022/06/11 12:50:58;;;;;;;9.32;2.60;;;25.00;48.30;;;;;;4991882;28;20372;-76
2022/06/11 12:53:40;;;;;;;9.07;2.35;;;25.10;46.90;;;;;;4999946;28;20485;-76
2022/06/11 12:56:30;;;;;;;10.43;3.05;;;25.40;45.90;;;;;;5001167;28;20051;-76
2022/06/11 12:59:30;;;;;;;10.75;2.70;;;25.80;45.80;;;;;;5003260;28;20034;-77
2022/06/11 13:02:14;;;;;;;6.60;2.40;;;25.90;45.00;;;;;;4998998;28;20122;-76
2022/06/11 13:04:49;;;;;;;9.50;2.33;;;25.90;45.30;;;;;;4997846;28;20049;-76
2022/06/11 13:07:26;;;;;;;8.27;2.20;;;25.30;46.50;;;;;;4996416;28;20038;-76
2022/06/11 13:10:02;;;;;;;8.00;2.47;;;25.40;45.30;;;;;;5000496;28;20463;-76